Nearby METAR Reports

 

NZAA - Auckland Intl Ar, New Zealand
Distance from station: SW 18km
Updated: 18/01/2021 17:00
Few Clouds
Few Clouds
 Wind from W
Wind: W 33 km/h
Temperature: 23°C
Dew Point: 12°C
Humidity: 50%
Barometer: 1009 hPa
Clouds: Few Clouds
Visibility: 10 km
Cloud details: Few Clouds 1250 m
2021/01/18 04:00 NZAA 180400Z AUTO 26018KT 9999 FEW041/// 23/12 Q1009 NOSIG
NZWN - Wellington Intl, New Zealand
Distance from station: S 493km
Updated: 18/01/2021 17:00
Clear
Clear
 Wind from NNW
Wind: NNW 35 km/h, Gust: 54 km/h
Temperature: 20°C
Dew Point: 10°C
Humidity: 53%
Barometer: 1000 hPa
Clouds: Clear
Visibility: 10 km
2021/01/18 04:00 NZWN 180400Z AUTO 34019G29KT 9999 NCD 20/10 Q1000 NOSIG
 
NZCH - Christchurch Int, New Zealand
Distance from station: SSW 759km
Updated: 18/01/2021 17:00
Mostly cloudy
Mostly cloudy
 Wind from WNW
Wind: WNW 39 km/h, Gust: 57 km/h
Temperature: 20°C
Dew Point: 4°C
Humidity: 35%
Barometer: 994 hPa
Clouds: Mostly cloudy
Visibility: 10 km
Cloud details: Mostly cloudy 2896 m
2021/01/18 04:00 NZCH 180400Z AUTO 30021G31KT 270V330 9999 BKN095/// 20/04 Q0994 TEMPO 7000 SHRA
YSNF - Norfolk Island A, Australia
Distance from station: NW 1091km
Updated: 18/01/2021 17:00
Clear
Clear
 Wind from SSE
Wind: SSE 17 km/h
Temperature: 24°C
Dew Point: 16°C
Humidity: 61%
Barometer: 1014 hPa
Clouds: Clear
Visibility: 10 km
2021/01/18 04:00 YSNF 180400Z AUTO 15009KT 9999 // NCD 24/16 Q1014